Time;durP1;ratioP1;P1;durP2;ratioP2;P2;SDS_P1;SDS_P2;PMS_P1;PMS_P2;Temp;Humidity;BMP_temperature;BMP_pressure;BME280_temperature;BME280_humidity;BME280_pressure;Samples;Min_cycle;Max_cycle;Signal;HPM_P1;HPM_P2
2022/09/22 00:01:22;;;;;;;1.77;0.30;;;8.90;87.50;;;;;;4890233;29;20511;-80
2022/09/22 00:03:53;;;;;;;2.38;0.30;;;8.90;87.60;;;;;;4877823;29;20507;-81
2022/09/22 00:06:29;;;;;;;0.88;0.30;;;8.90;87.70;;;;;;4882670;29;20048;-80
2022/09/22 00:09:01;;;;;;;1.00;0.38;;;8.90;87.70;;;;;;4882940;29;20049;-80
2022/09/22 00:11:35;;;;;;;0.63;0.30;;;8.90;87.80;;;;;;4882678;29;20080;-81
2022/09/22 00:14:26;;;;;;;3.05;0.40;;;8.80;87.70;;;;;;4897575;29;20041;-81
2022/09/22 00:16:56;;;;;;;1.15;0.30;;;8.80;87.70;;;;;;4882053;29;20059;-81
2022/09/22 00:19:25;;;;;;;0.45;0.25;;;8.80;87.80;;;;;;4873297;29;20048;-81
2022/09/22 00:21:52;;;;;;;0.43;0.20;;;8.80;87.90;;;;;;4888553;29;20127;-80
2022/09/22 00:24:21;;;;;;;5.07;0.38;;;8.70;87.90;;;;;;4886809;29;20052;-81
2022/09/22 00:26:49;;;;;;;1.73;0.20;;;8.70;87.90;;;;;;4867356;29;20097;-80
2022/09/22 00:29:16;;;;;;;0.65;0.13;;;8.70;87.90;;;;;;4897902;29;20064;-81
2022/09/22 00:31:44;;;;;;;0.70;0.20;;;8.70;87.90;;;;;;4870108;29;20049;-81
2022/09/22 00:34:17;;;;;;;1.23;0.40;;;8.70;87.90;;;;;;4882941;29;20047;-80
2022/09/22 00:36:45;;;;;;;0.70;0.20;;;8.70;87.90;;;;;;4875841;29;20572;-80
2022/09/22 00:39:13;;;;;;;0.50;0.28;;;8.70;88.20;;;;;;4856128;29;20410;-81
2022/09/22 00:41:44;;;;;;;1.83;0.40;;;8.60;88.00;;;;;;4888050;29;20059;-80
2022/09/22 00:44:19;;;;;;;0.93;0.22;;;8.60;88.10;;;;;;4874237;29;20462;-81
2022/09/22 00:46:51;;;;;;;0.52;0.20;;;8.60;88.10;;;;;;4882284;29;20090;-81
2022/09/22 00:49:26;;;;;;;0.73;0.30;;;8.60;88.20;;;;;;4882463;29;20048;-81
2022/09/22 00:51:53;;;;;;;0.77;0.22;;;8.60;88.20;;;;;;4869594;29;20494;-84
2022/09/22 00:54:20;;;;;;;0.50;0.20;;;8.60;88.20;;;;;;4854113;29;20041;-85
2022/09/22 00:56:53;;;;;;;0.20;0.10;;;8.60;88.20;;;;;;4869042;29;20151;-85
2022/09/22 00:59:22;;;;;;;0.93;0.20;;;8.50;88.20;;;;;;4879166;29;20143;-85
2022/09/22 01:01:49;;;;;;;1.05;0.22;;;8.50;88.20;;;;;;4883130;29;20057;-85
2022/09/22 01:04:18;;;;;;;0.50;0.20;;;8.50;88.30;;;;;;4854146;29;20100;-85
2022/09/22 01:06:46;;;;;;;0.20;0.10;;;8.50;88.40;;;;;;4885510;29;20474;-85
2022/09/22 01:09:14;;;;;;;0.50;0.20;;;8.50;88.40;;;;;;4882275;29;20484;-85
2022/09/22 01:11:42;;;;;;;0.50;0.22;;;8.40;88.40;;;;;;4898922;29;20132;-85
2022/09/22 01:14:12;;;;;;;1.30;0.30;;;8.40;88.40;;;;;;4867751;29;20053;-85
2022/09/22 01:16:47;;;;;;;0.43;0.20;;;8.40;88.50;;;;;;4908795;29;20450;-85
2022/09/22 01:19:51;;;;;;;0.65;0.20;;;8.40;88.50;;;;;;4878089;29;20553;-85
2022/09/22 01:22:36;;;;;;;0.38;0.13;;;8.40;88.50;;;;;;4899049;29;20127;-86
2022/09/22 01:25:34;;;;;;;0.90;0.30;;;8.40;88.40;;;;;;4890036;29;20151;-85
2022/09/22 01:28:13;;;;;;;0.45;0.20;;;8.40;88.50;;;;;;4868698;29;20431;-85
2022/09/22 01:31:04;;;;;;;0.95;0.30;;;8.40;88.60;;;;;;4889873;29;20051;-84
2022/09/22 01:33:43;;;;;;;0.75;0.20;;;8.30;88.50;;;;;;4840139;29;20056;-84
2022/09/22 01:36:22;;;;;;;0.50;0.20;;;8.30;88.70;;;;;;4875270;29;20100;-86
2022/09/22 01:38:55;;;;;;;0.43;0.20;;;8.30;88.70;;;;;;4892402;29;20053;-85
2022/09/22 01:42:01;;;;;;;0.90;0.20;;;8.30;88.70;;;;;;4894918;29;20150;-85
2022/09/22 01:44:54;;;;;;;0.88;0.32;;;8.30;88.70;;;;;;4900194;29;20056;-86
2022/09/22 01:47:34;;;;;;;1.35;0.20;;;8.20;88.80;;;;;;4876805;29;20076;-85
2022/09/22 01:50:09;;;;;;;0.68;0.20;;;8.20;88.70;;;;;;4884085;29;20080;-86
2022/09/22 01:52:40;;;;;;;0.57;0.20;;;8.20;88.70;;;;;;4884722;29;20048;-86
2022/09/22 01:55:24;;;;;;;0.70;0.25;;;8.20;88.80;;;;;;4882744;29;20497;-81
2022/09/22 01:58:03;;;;;;;0.85;0.20;;;8.20;88.80;;;;;;4869609;29;20489;-81
2022/09/22 02:00:31;;;;;;;0.57;0.30;;;8.20;88.90;;;;;;4874451;29;20064;-81
2022/09/22 02:03:14;;;;;;;0.32;0.22;;;8.10;89.00;;;;;;4866061;29;20096;-81
2022/09/22 02:05:57;;;;;;;0.52;0.28;;;8.10;88.90;;;;;;4884954;29;20049;-81
2022/09/22 02:08:31;;;;;;;0.22;0.13;;;8.10;89.00;;;;;;4880841;29;20580;-81
2022/09/22 02:11:09;;;;;;;0.70;0.30;;;8.10;89.00;;;;;;4868038;29;20104;-81
2022/09/22 02:13:36;;;;;;;0.40;0.30;;;8.10;89.00;;;;;;4862411;29;20041;-81
2022/09/22 02:16:04;;;;;;;1.48;0.50;;;8.10;89.10;;;;;;4865617;29;20131;-81
2022/09/22 02:18:46;;;;;;;0.93;0.38;;;8.10;89.10;;;;;;4856819;29;20641;-81
2022/09/22 02:21:16;;;;;;;0.40;0.20;;;8.00;89.10;;;;;;4860535;29;20052;-80
2022/09/22 02:23:48;;;;;;;0.40;0.20;;;8.00;89.20;;;;;;4892779;29;20457;-81
2022/09/22 02:26:28;;;;;;;0.60;0.30;;;8.00;89.20;;;;;;4865440;29;20048;-81
2022/09/22 02:29:08;;;;;;;1.00;0.40;;;8.00;89.30;;;;;;4891607;29;20496;-81
2022/09/22 02:31:37;;;;;;;0.57;0.30;;;8.00;89.30;;;;;;4878918;29;20416;-81
2022/09/22 02:34:05;;;;;;;0.75;0.30;;;8.00;89.30;;;;;;4855639;29;20050;-81
2022/09/22 02:36:54;;;;;;;0.95;0.40;;;8.00;89.30;;;;;;4865579;29;20045;-81
2022/09/22 02:39:27;;;;;;;0.88;0.40;;;8.00;89.30;;;;;;4874832;29;20063;-81
2022/09/22 02:42:22;;;;;;;0.63;0.32;;;8.00;89.30;;;;;;4874683;29;20053;-81
2022/09/22 02:45:00;;;;;;;1.83;0.60;;;7.90;89.20;;;;;;4872359;29;20057;-81
2022/09/22 02:48:05;;;;;;;1.20;0.52;;;7.90;89.30;;;;;;4869115;29;20055;-80
2022/09/22 02:50:33;;;;;;;0.82;0.30;;;7.90;89.30;;;;;;4798115;29;20057;-81
2022/09/22 02:53:15;;;;;;;0.70;0.35;;;7.90;89.40;;;;;;4881373;29;20102;-81
2022/09/22 02:55:44;;;;;;;0.60;0.30;;;7.80;89.40;;;;;;4889360;29;20136;-81
2022/09/22 02:58:14;;;;;;;0.85;0.30;;;7.80;89.40;;;;;;4874967;29;20069;-81
2022/09/22 03:00:41;;;;;;;0.85;0.35;;;7.80;89.50;;;;;;4881126;29;20061;-81
2022/09/22 03:03:10;;;;;;;0.80;0.20;;;7.80;89.50;;;;;;4874192;29;20079;-81
2022/09/22 03:05:38;;;;;;;0.77;0.35;;;7.70;89.50;;;;;;4878172;29;20078;-85
2022/09/22 03:08:05;;;;;;;0.88;0.40;;;7.80;89.60;;;;;;4857710;29;20116;-85
2022/09/22 03:10:32;;;;;;;0.70;0.30;;;7.70;89.60;;;;;;4856211;29;20525;-86
2022/09/22 03:12:59;;;;;;;1.42;0.60;;;7.70;89.60;;;;;;4886140;29;20047;-81
2022/09/22 03:15:44;;;;;;;2.33;0.90;;;7.70;89.60;;;;;;4864408;29;20093;-81
2022/09/22 03:18:12;;;;;;;0.73;0.30;;;7.70;89.70;;;;;;4900988;29;20553;-81
2022/09/22 03:20:39;;;;;;;1.05;0.40;;;7.70;90.10;;;;;;4877877;29;20493;-81
2022/09/22 03:23:07;;;;;;;1.20;0.30;;;7.70;89.70;;;;;;4880518;29;20140;-81
2022/09/22 03:25:34;;;;;;;0.80;0.30;;;7.70;89.70;;;;;;4887406;29;20227;-81
2022/09/22 03:28:01;;;;;;;1.13;0.50;;;7.70;89.70;;;;;;4888706;29;20100;-81
2022/09/22 03:30:28;;;;;;;0.85;0.40;;;7.70;89.70;;;;;;4874459;29;20063;-81
2022/09/22 03:32:56;;;;;;;1.10;0.40;;;7.70;89.80;;;;;;4883734;29;20139;-81
2022/09/22 03:35:23;;;;;;;1.40;0.40;;;7.60;89.80;;;;;;4883902;29;20108;-81
2022/09/22 03:37:50;;;;;;;0.75;0.35;;;7.60;89.80;;;;;;4875282;29;20574;-81
2022/09/22 03:40:18;;;;;;;0.88;0.30;;;7.60;89.80;;;;;;4889660;29;20057;-81
2022/09/22 03:42:45;;;;;;;0.65;0.30;;;7.60;89.90;;;;;;4839580;29;20097;-81
2022/09/22 03:45:14;;;;;;;0.60;0.30;;;7.60;89.90;;;;;;4867356;29;20116;-81
2022/09/22 03:47:41;;;;;;;1.10;0.50;;;7.60;89.90;;;;;;4855893;29;20066;-81
2022/09/22 03:50:08;;;;;;;0.82;0.45;;;7.50;89.90;;;;;;4872436;29;20409;-81
2022/09/22 03:52:36;;;;;;;0.65;0.35;;;7.50;90.20;;;;;;4859043;29;20049;-81
2022/09/22 03:55:03;;;;;;;0.57;0.25;;;7.50;90.00;;;;;;4885616;29;20100;-81
2022/09/22 03:57:30;;;;;;;2.17;0.30;;;7.50;90.00;;;;;;4876518;29;20037;-81
2022/09/22 03:59:57;;;;;;;0.90;0.40;;;7.50;90.00;;;;;;4866218;29;20069;-81
2022/09/22 04:02:24;;;;;;;1.00;0.40;;;7.50;90.00;;;;;;4853333;29;20056;-81
2022/09/22 04:04:52;;;;;;;0.70;0.40;;;7.50;90.10;;;;;;4884002;29;20052;-81
2022/09/22 04:07:19;;;;;;;1.98;0.35;;;7.50;90.00;;;;;;4869745;29;20061;-81
2022/09/22 04:09:46;;;;;;;0.57;0.28;;;7.50;90.00;;;;;;4852257;29;20044;-85
2022/09/22 04:12:13;;;;;;;1.15;0.50;;;7.40;90.00;;;;;;4880665;29;20076;-85
2022/09/22 04:14:40;;;;;;;0.82;0.40;;;7.40;90.00;;;;;;4849197;29;20143;-85
2022/09/22 04:17:07;;;;;;;0.98;0.50;;;7.40;90.10;;;;;;4849103;29;20447;-81
2022/09/22 04:19:35;;;;;;;0.65;0.30;;;7.40;90.10;;;;;;4888335;29;20120;-81
2022/09/22 04:22:03;;;;;;;1.10;0.30;;;7.40;90.10;;;;;;4869731;29;20508;-85
2022/09/22 04:24:30;;;;;;;1.15;0.38;;;7.40;90.10;;;;;;4900664;29;20121;-85
2022/09/22 04:26:57;;;;;;;0.70;0.30;;;7.40;90.10;;;;;;4858781;29;20049;-86
2022/09/22 04:29:44;;;;;;;0.75;0.40;;;7.40;90.10;;;;;;4868031;29;20044;-80
2022/09/22 04:32:11;;;;;;;1.00;0.40;;;7.30;90.00;;;;;;4871212;29;20493;-85
2022/09/22 04:34:38;;;;;;;1.00;0.60;;;7.30;90.10;;;;;;4876853;29;20052;-85
2022/09/22 04:37:05;;;;;;;2.03;0.60;;;7.30;90.40;;;;;;4857809;29;20153;-85
2022/09/22 04:39:32;;;;;;;0.50;0.28;;;7.30;90.10;;;;;;4888674;29;20053;-85
2022/09/22 04:41:59;;;;;;;1.05;0.50;;;7.30;90.10;;;;;;4873373;29;20044;-85
2022/09/22 04:44:26;;;;;;;0.70;0.35;;;7.30;90.10;;;;;;4865276;29;20067;-85
2022/09/22 04:46:56;;;;;;;1.10;0.50;;;7.30;90.10;;;;;;4873707;29;20040;-86
2022/09/22 04:49:23;;;;;;;1.00;0.60;;;7.30;90.20;;;;;;4882969;29;20465;-85
2022/09/22 04:51:51;;;;;;;1.00;0.40;;;7.20;90.10;;;;;;4888153;29;20044;-81
2022/09/22 04:54:18;;;;;;;1.27;0.60;;;7.20;90.20;;;;;;4884390;29;20412;-81
2022/09/22 04:56:46;;;;;;;0.55;0.30;;;7.20;90.20;;;;;;4882712;29;20142;-81
2022/09/22 04:59:13;;;;;;;0.55;0.30;;;7.20;90.20;;;;;;4883142;29;20119;-81
2022/09/22 05:01:40;;;;;;;0.60;0.35;;;7.20;90.20;;;;;;4873143;29;20057;-81
2022/09/22 05:04:08;;;;;;;1.35;0.60;;;7.20;90.20;;;;;;4852399;29;20517;-81
2022/09/22 05:06:35;;;;;;;0.90;0.40;;;7.20;90.20;;;;;;4881782;29;20062;-81
2022/09/22 05:09:03;;;;;;;0.85;0.43;;;7.20;90.20;;;;;;4840791;29;20048;-81
2022/09/22 05:11:31;;;;;;;1.98;0.47;;;7.20;90.20;;;;;;4874511;29;20549;-81
2022/09/22 05:14:01;;;;;;;0.88;0.50;;;7.20;90.20;;;;;;4866692;29;20072;-81
2022/09/22 05:16:30;;;;;;;1.25;0.50;;;7.10;90.20;;;;;;4867121;29;20099;-81
2022/09/22 05:18:57;;;;;;;0.65;0.40;;;7.10;90.20;;;;;;4878482;29;20155;-81
2022/09/22 05:21:24;;;;;;;1.65;0.63;;;7.10;90.20;;;;;;4873155;29;20087;-81
2022/09/22 05:23:52;;;;;;;1.65;0.50;;;7.10;90.30;;;;;;4889593;29;20194;-81
2022/09/22 05:26:19;;;;;;;3.05;0.75;;;7.10;90.30;;;;;;4879074;29;20134;-81
2022/09/22 05:28:46;;;;;;;1.08;0.40;;;7.10;90.50;;;;;;4877138;29;20130;-81
2022/09/22 05:31:15;;;;;;;1.60;0.60;;;7.10;90.20;;;;;;4872251;29;20055;-81
2022/09/22 05:33:44;;;;;;;1.38;0.50;;;7.10;90.20;;;;;;4882470;29;20490;-81
2022/09/22 05:36:11;;;;;;;1.27;0.50;;;7.10;90.30;;;;;;4881399;29;20156;-80
2022/09/22 05:38:38;;;;;;;0.90;0.38;;;7.10;90.30;;;;;;4866200;29;20059;-81
2022/09/22 05:41:05;;;;;;;0.85;0.47;;;7.10;90.20;;;;;;4866181;29;20131;-81
2022/09/22 05:43:34;;;;;;;1.02;0.60;;;7.10;90.20;;;;;;4852575;29;20048;-81
2022/09/22 05:46:00;;;;;;;0.82;0.45;;;7.10;90.20;;;;;;4884249;29;20087;-81
2022/09/22 05:48:28;;;;;;;2.42;0.45;;;7.10;90.20;;;;;;4880212;29;20147;-78
2022/09/22 05:50:57;;;;;;;0.88;0.40;;;7.10;90.20;;;;;;4864560;29;20047;-80
2022/09/22 05:53:24;;;;;;;0.77;0.38;;;7.20;90.30;;;;;;4847187;29;20068;-80
2022/09/22 05:55:51;;;;;;;0.63;0.35;;;7.20;90.20;;;;;;4876531;29;20101;-80
2022/09/22 05:58:18;;;;;;;1.45;0.70;;;7.20;90.20;;;;;;4842540;29;20482;-82
2022/09/22 06:00:45;;;;;;;1.30;0.50;;;7.30;90.20;;;;;;4878568;29;20048;-82
2022/09/22 06:03:12;;;;;;;1.60;0.68;;;7.30;90.20;;;;;;4860118;29;20048;-82
2022/09/22 06:05:39;;;;;;;1.55;0.65;;;7.30;90.20;;;;;;4877324;29;20052;-80
2022/09/22 06:08:06;;;;;;;1.15;0.55;;;7.30;90.20;;;;;;4873500;29;20048;-82
2022/09/22 06:10:37;;;;;;;1.25;0.50;;;7.30;90.10;;;;;;4859815;29;20048;-81
2022/09/22 06:13:07;;;;;;;1.92;0.90;;;7.40;90.40;;;;;;4895588;29;20037;-82
2022/09/22 06:15:35;;;;;;;2.00;0.77;;;7.50;90.10;;;;;;4877595;29;20052;-82
2022/09/22 06:18:08;;;;;;;2.67;1.17;;;7.50;90.00;;;;;;4852229;29;20056;-82
2022/09/22 06:20:41;;;;;;;3.60;1.10;;;7.60;90.00;;;;;;4878428;29;20155;-82
2022/09/22 06:23:14;;;;;;;2.75;1.20;;;7.60;90.00;;;;;;4874021;29;20097;-82
2022/09/22 06:25:43;;;;;;;5.57;2.03;;;7.70;89.90;;;;;;4877319;29;20060;-82
2022/09/22 06:28:13;;;;;;;3.33;1.42;;;7.80;89.70;;;;;;4879185;29;20147;-82
2022/09/22 06:30:41;;;;;;;4.00;2.03;;;7.90;89.70;;;;;;4868598;29;20123;-82
2022/09/22 06:33:11;;;;;;;5.00;2.58;;;8.00;89.60;;;;;;4863332;29;20049;-81
2022/09/22 06:35:41;;;;;;;5.57;2.88;;;8.10;89.50;;;;;;4884204;29;20493;-83
2022/09/22 06:38:13;;;;;;;6.18;3.17;;;8.20;89.50;;;;;;4866584;29;20057;-88
2022/09/22 06:40:41;;;;;;;4.25;2.15;;;8.20;89.30;;;;;;4864930;29;20053;-88
2022/09/22 06:43:21;;;;;;;4.05;1.80;;;8.30;89.30;;;;;;4896390;29;20062;-88
2022/09/22 06:45:50;;;;;;;4.03;2.33;;;8.40;89.20;;;;;;4871928;29;20108;-83
2022/09/22 06:48:22;;;;;;;4.53;2.03;;;8.50;89.00;;;;;;4878282;29;20071;-83
2022/09/22 06:50:52;;;;;;;3.22;1.60;;;8.60;88.90;;;;;;4862385;29;20052;-83
2022/09/22 06:53:20;;;;;;;3.47;1.63;;;8.70;88.70;;;;;;4855402;29;20045;-82
2022/09/22 06:55:51;;;;;;;3.08;1.27;;;8.80;88.60;;;;;;4853492;29;20049;-83
2022/09/22 06:58:21;;;;;;;3.05;1.27;;;8.90;88.40;;;;;;4858173;29;20093;-81
2022/09/22 07:00:49;;;;;;;3.20;1.27;;;9.10;88.30;;;;;;4877937;29;20450;-81
2022/09/22 07:03:21;;;;;;;2.33;1.23;;;9.20;88.10;;;;;;4856144;29;20090;-81
2022/09/22 07:05:55;;;;;;;2.70;1.40;;;9.30;88.00;;;;;;4897194;29;20063;-81
2022/09/22 07:08:24;;;;;;;2.00;0.90;;;9.50;87.80;;;;;;4871219;29;20059;-81
2022/09/22 07:10:59;;;;;;;2.00;1.23;;;9.50;87.70;;;;;;4882302;29;20930;-79
2022/09/22 07:13:28;;;;;;;2.60;1.17;;;9.60;87.60;;;;;;4895013;29;20049;-82
2022/09/22 07:16:06;;;;;;;2.55;1.08;;;9.70;87.50;;;;;;4879813;29;20103;-83
2022/09/22 07:18:42;;;;;;;1.85;1.05;;;9.80;87.50;;;;;;4874448;29;20093;-90
2022/09/22 07:21:19;;;;;;;2.85;1.02;;;9.90;87.40;;;;;;4878571;29;20044;-88
2022/09/22 07:23:52;;;;;;;2.33;1.20;;;10.00;87.30;;;;;;4882268;29;20553;-88
2022/09/22 07:26:25;;;;;;;1.55;1.02;;;10.10;87.30;;;;;;4865757;29;20081;-88
2022/09/22 07:28:53;;;;;;;2.30;1.35;;;10.10;87.20;;;;;;4893018;29;20059;-86
2022/09/22 07:31:22;;;;;;;2.72;1.58;;;10.20;87.10;;;;;;4870635;29;20060;-85
2022/09/22 07:33:55;;;;;;;3.33;1.77;;;10.30;87.10;;;;;;4880174;29;20493;-84
2022/09/22 07:36:27;;;;;;;3.22;1.35;;;10.40;87.10;;;;;;4900198;29;20067;-85
2022/09/22 07:38:56;;;;;;;2.83;1.17;;;10.40;87.00;;;;;;4880302;29;20152;-88
2022/09/22 07:41:28;;;;;;;4.47;1.15;;;10.50;87.00;;;;;;4869871;29;20063;-85
2022/09/22 07:46:44;;;;;;;3.25;1.67;;;10.60;86.90;;;;;;4888174;29;20413;-86
2022/09/22 07:49:13;;;;;;;3.17;1.38;;;10.70;86.80;;;;;;4881125;29;20413;-88
2022/09/22 07:51:42;;;;;;;3.95;1.33;;;10.80;86.80;;;;;;4884232;29;21531;-86
2022/09/22 07:54:09;;;;;;;2.50;1.15;;;10.80;86.70;;;;;;4870940;29;20083;-83
2022/09/22 07:56:39;;;;;;;3.85;1.23;;;10.90;86.70;;;;;;4874174;29;20163;-82
2022/09/22 07:59:09;;;;;;;2.47;1.75;;;11.00;86.60;;;;;;4909140;29;20041;-81
2022/09/22 08:01:40;;;;;;;2.80;1.52;;;11.10;86.50;;;;;;4878710;29;20502;-83
2022/09/22 08:04:21;;;;;;;3.28;1.88;;;11.20;86.40;;;;;;4880217;29;20052;-80
2022/09/22 08:06:54;;;;;;;3.97;1.38;;;11.30;86.30;;;;;;4878549;29;20041;-81
2022/09/22 08:09:23;;;;;;;4.43;2.42;;;11.40;86.20;;;;;;4896627;29;20127;-80
2022/09/22 08:11:51;;;;;;;4.45;2.17;;;11.50;86.00;;;;;;4884931;29;20059;-80
2022/09/22 08:14:22;;;;;;;6.38;2.45;;;11.60;86.00;;;;;;4865927;29;20480;-80
2022/09/22 08:16:52;;;;;;;4.07;2.45;;;11.60;85.90;;;;;;4863926;29;20053;-80
2022/09/22 08:19:22;;;;;;;3.88;2.15;;;11.60;85.90;;;;;;4878396;29;20049;-79
2022/09/22 08:21:51;;;;;;;3.97;2.47;;;11.70;85.80;;;;;;4882800;29;20136;-79
2022/09/22 08:24:20;;;;;;;4.20;1.83;;;11.80;85.90;;;;;;4868978;29;20056;-79
2022/09/22 08:26:49;;;;;;;3.63;2.20;;;11.80;85.80;;;;;;4880059;29;20064;-86
2022/09/22 08:29:16;;;;;;;4.28;2.45;;;11.90;85.90;;;;;;4885605;29;20064;-85
2022/09/22 08:31:46;;;;;;;5.90;2.47;;;11.90;85.80;;;;;;4872763;29;20048;-84
2022/09/22 08:34:17;;;;;;;3.47;2.03;;;12.00;85.80;;;;;;4898740;29;20059;-85
2022/09/22 08:36:45;;;;;;;3.65;2.13;;;12.00;85.70;;;;;;4872452;29;20052;-85
2022/09/22 08:39:14;;;;;;;3.33;2.05;;;12.10;85.70;;;;;;4873620;29;20777;-87
2022/09/22 08:42:04;;;;;;;4.57;2.92;;;12.10;85.60;;;;;;4870749;29;20056;-87
2022/09/22 08:44:48;;;;;;;3.33;2.35;;;12.20;85.70;;;;;;4898451;29;20425;-87
2022/09/22 08:51:50;;;;;;;3.45;1.98;;;12.30;85.60;;;;;;4878856;29;20053;-87
2022/09/22 08:53:12;;;;;;;4.45;1.73;;;12.40;85.40;;;;;;4893798;29;20076;-87
2022/09/22 08:55:42;;;;;;;3.72;2.10;;;12.50;86.00;;;;;;4894890;29;20056;-87
2022/09/22 08:58:35;;;;;;;4.43;1.90;;;12.50;85.20;;;;;;4862076;29;20080;-86
2022/09/22 09:01:24;;;;;;;2.67;1.55;;;12.60;85.10;;;;;;4878427;29;20514;-87
2022/09/22 09:04:35;;;;;;;5.20;1.88;;;12.70;85.00;;;;;;4867604;29;20379;-87
2022/09/22 09:07:18;;;;;;;3.50;1.55;;;12.80;84.90;;;;;;4849412;29;20135;-87
2022/09/22 09:09:54;;;;;;;3.83;2.13;;;12.80;84.90;;;;;;4896972;29;20040;-87
2022/09/22 09:12:39;;;;;;;4.72;2.17;;;13.00;84.80;;;;;;4893996;29;20052;-82
2022/09/22 09:15:18;;;;;;;4.13;2.47;;;13.00;84.70;;;;;;4887756;29;20139;-83
2022/09/22 09:17:47;;;;;;;4.55;2.53;;;13.10;84.50;;;;;;4885493;29;20040;-82
2022/09/22 09:20:42;;;;;;;5.18;2.33;;;13.20;84.50;;;;;;4877633;29;20108;-82
2022/09/22 09:23:16;;;;;;;4.63;2.30;;;13.30;84.40;;;;;;4887698;29;20048;-82
2022/09/22 09:25:48;;;;;;;4.32;2.47;;;13.30;84.40;;;;;;4890139;29;20107;-82
2022/09/22 09:28:34;;;;;;;5.55;2.50;;;13.40;84.40;;;;;;4868442;29;20395;-82
2022/09/22 09:31:17;;;;;;;3.15;2.25;;;13.40;84.30;;;;;;4886644;29;20072;-82
2022/09/22 09:34:01;;;;;;;3.63;2.38;;;13.50;84.10;;;;;;4878537;29;20048;-82
2022/09/22 09:36:41;;;;;;;4.82;2.67;;;13.60;83.90;;;;;;4876152;29;20442;-82
2022/09/22 09:39:30;;;;;;;6.40;1.80;;;13.80;83.70;;;;;;4873714;29;20049;-82
2022/09/22 09:42:00;;;;;;;5.13;2.88;;;13.80;83.40;;;;;;4876226;29;20044;-82
2022/09/22 09:44:37;;;;;;;3.85;2.10;;;13.90;83.60;;;;;;4869510;29;20044;-82
2022/09/22 09:47:26;;;;;;;5.50;2.67;;;13.90;83.50;;;;;;4869205;29;20048;-82
2022/09/22 09:49:54;;;;;;;4.30;2.42;;;14.00;83.30;;;;;;4874082;29;20051;-82
2022/09/22 09:52:24;;;;;;;5.80;1.80;;;14.10;83.40;;;;;;4865476;29;20047;-82
2022/09/22 09:54:53;;;;;;;4.43;1.50;;;14.20;82.90;;;;;;4874029;29;20061;-87
2022/09/22 09:57:21;;;;;;;5.30;1.70;;;14.30;82.80;;;;;;4889498;29;20051;-87
2022/09/22 10:00:30;;;;;;;2.70;1.13;;;14.40;82.70;;;;;;4876971;29;20072;-88
2022/09/22 10:03:23;;;;;;;2.03;1.10;;;14.50;82.40;;;;;;4886624;29;20045;-88
2022/09/22 10:06:01;;;;;;;2.90;0.73;;;14.50;82.40;;;;;;4883747;29;20045;-89
2022/09/22 10:08:33;;;;;;;2.90;0.98;;;14.70;82.00;;;;;;4885540;29;20670;-84
2022/09/22 10:11:01;;;;;;;3.13;0.70;;;14.80;80.70;;;;;;4869821;29;20040;-84
2022/09/22 10:13:40;;;;;;;4.22;0.80;;;14.90;80.60;;;;;;4881473;29;20063;-85
2022/09/22 10:16:22;;;;;;;1.60;0.90;;;15.00;80.30;;;;;;4894923;29;20080;-85
2022/09/22 10:18:56;;;;;;;3.28;1.20;;;15.10;80.00;;;;;;4882526;29;20450;-87
2022/09/22 10:21:25;;;;;;;2.72;0.93;;;15.10;80.70;;;;;;4883758;29;20050;-86
2022/09/22 10:23:54;;;;;;;3.05;0.98;;;15.20;80.20;;;;;;4891984;29;20139;-87
2022/09/22 10:26:25;;;;;;;2.85;1.15;;;15.20;80.20;;;;;;4866669;29;20056;-85
2022/09/22 10:29:13;;;;;;;4.93;1.77;;;15.20;80.30;;;;;;4889944;29;20496;-85
2022/09/22 10:31:42;;;;;;;3.70;2.30;;;15.30;79.70;;;;;;4878367;29;20052;-85
2022/09/22 10:34:30;;;;;;;3.67;1.98;;;15.40;79.40;;;;;;4870059;29;20069;-86
2022/09/22 10:36:59;;;;;;;6.35;2.03;;;15.50;79.00;;;;;;4854338;29;20072;-85
2022/09/22 10:39:35;;;;;;;4.78;2.00;;;15.50;79.20;;;;;;4892521;29;20049;-85
2022/09/22 10:42:13;;;;;;;2.95;2.05;;;15.50;79.30;;;;;;4884846;29;20671;-86
2022/09/22 10:44:41;;;;;;;2.40;1.40;;;15.40;79.30;;;;;;4880710;29;20053;-88
2022/09/22 10:47:39;;;;;;;3.60;1.80;;;15.50;79.50;;;;;;4875044;29;20056;-87
2022/09/22 10:50:21;;;;;;;4.38;1.52;;;15.50;79.00;;;;;;4896892;29;20112;-87
2022/09/22 10:53:11;;;;;;;3.30;1.38;;;15.60;79.10;;;;;;4888513;29;20060;-87
2022/09/22 10:55:48;;;;;;;5.63;1.63;;;15.60;78.90;;;;;;4865661;29;20052;-87
2022/09/22 10:58:27;;;;;;;4.38;1.58;;;15.50;78.90;;;;;;4877720;29;20587;-87
2022/09/22 11:01:10;;;;;;;4.30;2.30;;;15.60;78.90;;;;;;4898742;29;20075;-87
2022/09/22 11:03:56;;;;;;;4.80;2.00;;;15.70;78.00;;;;;;4898570;29;20048;-88
2022/09/22 11:12:45;;;;;;;2.90;1.17;;;15.80;77.70;;;;;;4884562;29;20135;-87
2022/09/22 11:15:20;;;;;;;2.80;1.35;;;15.80;77.60;;;;;;4881799;29;20092;-86
2022/09/22 11:18:07;;;;;;;3.03;1.17;;;15.90;77.60;;;;;;4894640;29;20413;-87
2022/09/22 11:21:03;;;;;;;1.73;0.80;;;15.90;77.40;;;;;;4875649;29;20056;-81
2022/09/22 11:23:46;;;;;;;2.88;0.90;;;15.90;77.30;;;;;;4826329;29;20053;-81
2022/09/22 11:26:27;;;;;;;2.50;0.70;;;15.90;77.40;;;;;;4881271;29;20052;-81
2022/09/22 11:29:08;;;;;;;2.45;0.80;;;15.90;77.40;;;;;;4891670;29;20052;-81
2022/09/22 11:32:03;;;;;;;3.40;1.00;;;15.90;76.80;;;;;;4875449;29;20139;-87
2022/09/22 11:35:08;;;;;;;3.25;0.70;;;16.00;76.60;;;;;;4886864;29;20458;-88
2022/09/22 11:37:44;;;;;;;2.05;0.65;;;16.10;76.50;;;;;;4798510;29;20055;-86
2022/09/22 11:40:24;;;;;;;3.10;0.93;;;16.20;76.30;;;;;;4896492;29;20475;-87
2022/09/22 11:43:04;;;;;;;1.83;0.80;;;16.30;76.00;;;;;;4889325;29;20056;-86
2022/09/22 11:45:53;;;;;;;2.60;0.60;;;16.40;75.80;;;;;;4898826;29;20048;-87
2022/09/22 11:49:05;;;;;;;1.98;0.50;;;16.40;75.70;;;;;;4884044;29;20072;-87
2022/09/22 11:51:53;;;;;;;2.08;0.50;;;16.40;75.40;;;;;;4866799;29;20049;-86
2022/09/22 11:54:56;;;;;;;2.08;0.50;;;16.50;75.20;;;;;;4870741;29;20458;-86
2022/09/22 11:57:31;;;;;;;1.60;0.70;;;16.50;74.60;;;;;;4896391;29;20040;-87
2022/09/22 12:00:10;;;;;;;3.63;0.73;;;16.50;73.40;;;;;;4879921;29;20048;-82
2022/09/22 12:02:46;;;;;;;1.48;0.55;;;16.60;73.10;;;;;;4906105;29;20052;-80
2022/09/22 12:05:31;;;;;;;2.25;0.55;;;16.80;73.10;;;;;;4869474;29;20067;-81
2022/09/22 12:08:03;;;;;;;1.05;0.40;;;17.00;72.90;;;;;;4880110;29;20190;-80
2022/09/22 12:10:43;;;;;;;2.13;0.52;;;17.20;72.70;;;;;;4891919;29;20056;-79
2022/09/22 12:13:31;;;;;;;0.95;0.50;;;17.40;72.20;;;;;;4905809;29;20109;-81
2022/09/22 12:16:21;;;;;;;1.65;0.98;;;17.40;72.10;;;;;;4869246;29;20071;-81
2022/09/22 12:19:12;;;;;;;1.77;0.60;;;17.40;72.60;;;;;;4867688;29;20053;-80
2022/09/22 12:22:06;;;;;;;1.42;0.43;;;17.50;72.10;;;;;;4862818;29;20505;-79
2022/09/22 12:24:33;;;;;;;1.70;0.40;;;17.50;71.90;;;;;;4879285;29;20044;-79
2022/09/22 12:27:15;;;;;;;1.42;0.50;;;17.60;71.90;;;;;;4882700;29;20076;-82
2022/09/22 12:29:54;;;;;;;2.22;0.60;;;17.70;70.50;;;;;;4868379;29;20052;-83
2022/09/22 12:32:33;;;;;;;3.67;0.45;;;17.70;69.70;;;;;;4900296;29;20040;-83
2022/09/22 12:35:01;;;;;;;1.15;0.50;;;17.70;69.80;;;;;;4862387;29;20051;-83
2022/09/22 12:37:34;;;;;;;1.58;0.40;;;17.80;69.80;;;;;;4871459;29;20486;-83
2022/09/22 12:40:13;;;;;;;0.80;0.38;;;17.80;69.30;;;;;;4877462;29;20097;-82
2022/09/22 12:42:51;;;;;;;1.60;0.57;;;17.70;69.20;;;;;;4874385;29;20447;-81
2022/09/22 12:45:34;;;;;;;1.15;0.40;;;17.70;69.10;;;;;;4873408;29;20064;-80
2022/09/22 12:48:27;;;;;;;0.60;0.30;;;17.70;68.40;;;;;;4861579;29;20109;-79
2022/09/22 12:51:16;;;;;;;1.83;0.50;;;17.70;68.70;;;;;;4882594;29;20072;-84
2022/09/22 12:53:46;;;;;;;1.70;0.30;;;17.60;68.90;;;;;;4880106;29;20485;-86
2022/09/22 12:56:42;;;;;;;2.35;0.40;;;17.60;69.10;;;;;;4852506;29;20512;-87
2022/09/22 12:59:37;;;;;;;0.98;0.43;;;17.60;68.40;;;;;;4884295;29;20075;-88
2022/09/22 13:02:10;;;;;;;2.00;0.40;;;17.60;68.60;;;;;;4892383;29;20061;-87
2022/09/22 13:04:38;;;;;;;0.95;0.30;;;17.50;68.80;;;;;;4873932;29;20052;-88
2022/09/22 13:07:38;;;;;;;1.42;0.47;;;17.40;68.80;;;;;;4885779;29;20056;-88
2022/09/22 13:10:23;;;;;;;2.45;0.70;;;17.50;68.40;;;;;;4867717;29;20097;-87
2022/09/22 13:15:49;;;;;;;1.40;0.60;;;17.60;66.70;;;;;;4900901;29;20051;-86
2022/09/22 13:18:30;;;;;;;1.38;0.40;;;17.60;67.10;;;;;;4886415;29;20486;-85
2022/09/22 13:20:59;;;;;;;1.73;0.75;;;17.60;66.90;;;;;;4890823;29;20056;-81
2022/09/22 13:23:26;;;;;;;1.40;0.60;;;17.60;67.20;;;;;;4881461;29;20056;-80
2022/09/22 13:25:53;;;;;;;2.13;0.70;;;17.70;66.70;;;;;;4887145;29;20045;-81
2022/09/22 13:28:26;;;;;;;1.75;0.60;;;17.70;67.00;;;;;;4861879;29;20045;-80
2022/09/22 13:31:13;;;;;;;1.30;0.55;;;17.60;67.10;;;;;;4866648;29;20076;-81
2022/09/22 13:33:41;;;;;;;1.77;0.60;;;17.60;67.80;;;;;;4884207;29;20048;-87
2022/09/22 13:36:24;;;;;;;2.15;0.50;;;17.60;67.40;;;;;;4884376;29;20405;-87
2022/09/22 13:38:54;;;;;;;0.70;0.25;;;17.60;67.30;;;;;;4875968;29;20100;-86
2022/09/22 13:41:24;;;;;;;2.22;0.63;;;17.70;67.40;;;;;;4897851;29;20048;-87
2022/09/22 13:44:06;;;;;;;1.92;0.80;;;17.80;66.80;;;;;;4894235;29;20433;-83
2022/09/22 13:46:37;;;;;;;1.50;0.60;;;17.90;66.00;;;;;;4866347;29;20540;-84